sensor_id;sensor_type;location;lat;lon;timestamp;pressure;altitude;pressure_sealevel;temperature;humidity
35676;BME280;21790;42.668;23.298;2022-11-04T00:01:13;94831.59;;;18.55;40.42
35676;BME280;21790;42.668;23.298;2022-11-04T00:03:38;94823.19;;;18.60;40.29
35676;BME280;21790;42.668;23.298;2022-11-04T00:06:04;94821.16;;;18.44;40.59
35676;BME280;21790;42.668;23.298;2022-11-04T00:08:29;94821.91;;;18.72;39.78
35676;BME280;21790;42.668;23.298;2022-11-04T00:10:56;94830.84;;;18.71;39.56
35676;BME280;21790;42.668;23.298;2022-11-04T00:13:40;94820.41;;;18.55;40.38
35676;BME280;21790;42.668;23.298;2022-11-04T00:16:06;94824.97;;;18.52;40.05
35676;BME280;21790;42.668;23.298;2022-11-04T00:18:51;94817.34;;;18.53;40.07
35676;BME280;21790;42.668;23.298;2022-11-04T00:21:16;94821.91;;;18.39;40.45
35676;BME280;21790;42.668;23.298;2022-11-04T00:24:00;94821.91;;;18.17;40.95
35676;BME280;21790;42.668;23.298;2022-11-04T00:26:44;94828.03;;;17.98;40.79
35676;BME280;21790;42.668;23.298;2022-11-04T00:29:28;94830.06;;;17.92;41.08
35676;BME280;21790;42.668;23.298;2022-11-04T00:31:53;94818.59;;;17.85;41.45
35676;BME280;21790;42.668;23.298;2022-11-04T00:34:37;94818.09;;;17.86;41.53
35676;BME280;21790;42.668;23.298;2022-11-04T00:37:03;94811.47;;;17.84;41.23
35676;BME280;21790;42.668;23.298;2022-11-04T00:39:31;94809.66;;;17.64;41.71
35676;BME280;21790;42.668;23.298;2022-11-04T00:41:56;94814.50;;;17.64;41.88
35676;BME280;21790;42.668;23.298;2022-11-04T00:44:22;94808.63;;;17.56;41.93
35676;BME280;21790;42.668;23.298;2022-11-04T00:46:47;94811.22;;;17.71;41.72
35676;BME280;21790;42.668;23.298;2022-11-04T00:49:13;94802.31;;;17.61;41.92
35676;BME280;21790;42.668;23.298;2022-11-04T00:51:38;94795.44;;;17.68;41.43
35676;BME280;21790;42.668;23.298;2022-11-04T00:54:04;94800.28;;;17.78;41.25
35676;BME280;21790;42.668;23.298;2022-11-04T00:56:30;94795.72;;;17.70;41.18
35676;BME280;21790;42.668;23.298;2022-11-04T00:58:58;94793.94;;;17.67;41.55
35676;BME280;21790;42.668;23.298;2022-11-04T01:01:24;94798.50;;;17.64;41.16
35676;BME280;21790;42.668;23.298;2022-11-04T01:03:51;94794.94;;;17.69;41.04
35676;BME280;21790;42.668;23.298;2022-11-04T01:06:19;94790.56;;;17.51;41.38
35676;BME280;21790;42.668;23.298;2022-11-04T01:08:46;94798.19;;;17.51;41.28
35676;BME280;21790;42.668;23.298;2022-11-04T01:11:12;94789.31;;;17.58;41.16
35676;BME280;21790;42.668;23.298;2022-11-04T01:13:38;94789.56;;;17.54;41.28
35676;BME280;21790;42.668;23.298;2022-11-04T01:16:07;94781.88;;;17.33;41.91
35676;BME280;21790;42.668;23.298;2022-11-04T01:18:33;94780.66;;;17.45;41.47
35676;BME280;21790;42.668;23.298;2022-11-04T01:21:03;94777.59;;;17.43;41.73
35676;BME280;21790;42.668;23.298;2022-11-04T01:23:29;94771.75;;;17.52;41.38
35676;BME280;21790;42.668;23.298;2022-11-04T01:25:55;94768.47;;;17.53;41.37
35676;BME280;21790;42.668;23.298;2022-11-04T01:28:20;94770.50;;;17.53;41.32
35676;BME280;21790;42.668;23.298;2022-11-04T01:30:46;94773.06;;;17.62;40.83
35676;BME280;21790;42.668;23.298;2022-11-04T01:33:11;94761.88;;;17.51;41.73
35676;BME280;21790;42.668;23.298;2022-11-04T01:35:37;94766.16;;;17.52;41.64
35676;BME280;21790;42.668;23.298;2022-11-04T01:38:02;94767.66;;;17.31;41.83
35676;BME280;21790;42.668;23.298;2022-11-04T01:40:28;94768.69;;;17.39;41.67
35676;BME280;21790;42.668;23.298;2022-11-04T01:42:53;94764.81;;;17.20;42.24
35676;BME280;21790;42.668;23.298;2022-11-04T01:45:20;94771.44;;;17.17;42.27
35676;BME280;21790;42.668;23.298;2022-11-04T01:48:08;94766.16;;;17.52;41.58
35676;BME280;21790;42.668;23.298;2022-11-04T01:50:38;94768.16;;;17.18;42.51
35676;BME280;21790;42.668;23.298;2022-11-04T01:53:12;94757.25;;;17.31;41.85
35676;BME280;21790;42.668;23.298;2022-11-04T01:55:42;94755.94;;;17.15;42.42
35676;BME280;21790;42.668;23.298;2022-11-04T01:58:13;94758.19;;;17.00;42.65
35676;BME280;21790;42.668;23.298;2022-11-04T02:00:41;94760.53;;;17.24;42.21
35676;BME280;21790;42.668;23.298;2022-11-04T02:03:35;94757.66;;;17.07;42.14
35676;BME280;21790;42.668;23.298;2022-11-04T02:05:58;94752.06;;;16.96;42.53
35676;BME280;21790;42.668;23.298;2022-11-04T02:08:24;94755.09;;;16.93;42.60
35676;BME280;21790;42.668;23.298;2022-11-04T02:10:57;94748.78;;;17.03;42.48
35676;BME280;21790;42.668;23.298;2022-11-04T02:13:23;94744.19;;;16.89;42.82
35676;BME280;21790;42.668;23.298;2022-11-04T02:21:28;94749.47;;;16.87;42.93
35676;BME280;21790;42.668;23.298;2022-11-04T02:32:33;94740.91;;;16.96;42.29
35676;BME280;21790;42.668;23.298;2022-11-04T02:35:22;94738.31;;;16.87;42.37
35676;BME280;21790;42.668;23.298;2022-11-04T02:38:13;94745.72;;;16.90;42.49
35676;BME280;21790;42.668;23.298;2022-11-04T02:43:31;94732.53;;;16.96;42.20
35676;BME280;21790;42.668;23.298;2022-11-04T02:46:20;94741.13;;;16.93;42.43
35676;BME280;21790;42.668;23.298;2022-11-04T02:51:24;94726.06;;;16.68;42.85
35676;BME280;21790;42.668;23.298;2022-11-04T02:54:04;94731.09;;;16.64;43.05
35676;BME280;21790;42.668;23.298;2022-11-04T02:56:35;94730.25;;;16.47;43.61
35676;BME280;21790;42.668;23.298;2022-11-04T02:59:09;94731.06;;;16.53;43.33
35676;BME280;21790;42.668;23.298;2022-11-04T03:01:40;94728.94;;;16.42;43.74
35676;BME280;21790;42.668;23.298;2022-11-04T03:04:13;94737.34;;;16.48;43.46
35676;BME280;21790;42.668;23.298;2022-11-04T03:06:42;94717.00;;;16.36;43.80
35676;BME280;21790;42.668;23.298;2022-11-04T03:09:10;94739.03;;;16.28;44.11
35676;BME280;21790;42.668;23.298;2022-11-04T03:11:41;94729.13;;;16.27;43.92
35676;BME280;21790;42.668;23.298;2022-11-04T03:14:14;94727.63;;;16.32;43.91
35676;BME280;21790;42.668;23.298;2022-11-04T03:16:46;94719.78;;;16.30;43.73
35676;BME280;21790;42.668;23.298;2022-11-04T03:19:28;94722.50;;;16.19;44.05
35676;BME280;21790;42.668;23.298;2022-11-04T03:21:59;94725.88;;;16.35;43.80
35676;BME280;21790;42.668;23.298;2022-11-04T03:24:26;94727.88;;;16.28;43.68
35676;BME280;21790;42.668;23.298;2022-11-04T03:27:21;94732.50;;;16.43;43.44
35676;BME280;21790;42.668;23.298;2022-11-04T03:30:06;94722.75;;;16.21;43.93
35676;BME280;21790;42.668;23.298;2022-11-04T03:35:24;94729.13;;;16.27;43.46
35676;BME280;21790;42.668;23.298;2022-11-04T03:37:50;94722.72;;;16.16;43.55
35676;BME280;21790;42.668;23.298;2022-11-04T03:40:16;94729.31;;;16.18;43.50
35676;BME280;21790;42.668;23.298;2022-11-04T03:42:46;94732.16;;;16.24;43.42
35676;BME280;21790;42.668;23.298;2022-11-04T03:45:13;94725.47;;;16.10;43.50
35676;BME280;21790;42.668;23.298;2022-11-04T03:47:40;94732.13;;;16.18;43.42
35676;BME280;21790;42.668;23.298;2022-11-04T03:50:19;94727.28;;;16.13;43.58
35676;BME280;21790;42.668;23.298;2022-11-04T03:52:50;94727.41;;;15.99;44.02
35676;BME280;21790;42.668;23.298;2022-11-04T03:55:15;94725.84;;;15.92;44.09
35676;BME280;21790;42.668;23.298;2022-11-04T03:57:54;94726.78;;;16.20;43.72
35676;BME280;21790;42.668;23.298;2022-11-04T04:00:23;94713.56;;;16.15;43.61
35676;BME280;21790;42.668;23.298;2022-11-04T04:13:33;94723.75;;;15.81;44.48
35676;BME280;21790;42.668;23.298;2022-11-04T04:16:12;94723.13;;;15.98;43.96
35676;BME280;21790;42.668;23.298;2022-11-04T04:18:46;94715.44;;;15.87;44.38
35676;BME280;21790;42.668;23.298;2022-11-04T04:21:16;94719.50;;;15.60;45.08
35676;BME280;21790;42.668;23.298;2022-11-04T04:23:45;94717.72;;;15.88;44.18
35676;BME280;21790;42.668;23.298;2022-11-04T04:26:32;94714.50;;;16.01;43.67
35676;BME280;21790;42.668;23.298;2022-11-04T04:29:19;94722.72;;;15.79;44.14
35676;BME280;21790;42.668;23.298;2022-11-04T04:31:47;94725.13;;;15.66;44.20
35676;BME280;21790;42.668;23.298;2022-11-04T04:34:15;94706.84;;;15.59;44.32
35676;BME280;21790;42.668;23.298;2022-11-04T04:37:00;94712.38;;;15.85;43.98
35676;BME280;21790;42.668;23.298;2022-11-04T04:39:34;94716.22;;;15.62;44.41
35676;BME280;21790;42.668;23.298;2022-11-04T04:42:20;94715.47;;;15.93;43.54
35676;BME280;21790;42.668;23.298;2022-11-04T04:45:05;94718.09;;;15.70;43.98
35676;BME280;21790;42.668;23.298;2022-11-04T04:47:35;94718.31;;;15.67;44.42
35676;BME280;21790;42.668;23.298;2022-11-04T04:50:02;94719.84;;;15.68;44.22
35676;BME280;21790;42.668;23.298;2022-11-04T04:52:41;94719.38;;;15.75;43.89
35676;BME280;21790;42.668;23.298;2022-11-04T04:55:07;94715.28;;;15.44;44.65
35676;BME280;21790;42.668;23.298;2022-11-04T04:57:33;94710.72;;;15.41;44.82
35676;BME280;21790;42.668;23.298;2022-11-04T04:59:59;94724.94;;;15.43;44.73
35676;BME280;21790;42.668;23.298;2022-11-04T05:02:24;94718.34;;;15.46;44.94
35676;BME280;21790;42.668;23.298;2022-11-04T05:04:49;94705.81;;;15.31;45.14
35676;BME280;21790;42.668;23.298;2022-11-04T05:07:15;94717.00;;;15.36;45.24
35676;BME280;21790;42.668;23.298;2022-11-04T05:09:41;94718.44;;;15.26;45.51
35676;BME280;21790;42.668;23.298;2022-11-04T05:12:07;94722.28;;;15.55;44.77
35676;BME280;21790;42.668;23.298;2022-11-04T05:14:32;94722.81;;;15.38;45.19
35676;BME280;21790;42.668;23.298;2022-11-04T05:16:57;94720.66;;;15.48;45.09
35676;BME280;21790;42.668;23.298;2022-11-04T05:19:23;94733.41;;;15.55;44.99
35676;BME280;21790;42.668;23.298;2022-11-04T05:21:48;94725.41;;;15.42;45.37
35676;BME280;21790;42.668;23.298;2022-11-04T05:24:14;94716.00;;;15.39;45.45
35676;BME280;21790;42.668;23.298;2022-11-04T05:26:39;94730.25;;;15.47;45.35
35676;BME280;21790;42.668;23.298;2022-11-04T05:29:05;94732.72;;;15.39;45.60
35676;BME280;21790;42.668;23.298;2022-11-04T05:31:30;94732.56;;;15.48;45.38
35676;BME280;21790;42.668;23.298;2022-11-04T05:33:56;94737.16;;;15.52;45.40
35676;BME280;21790;42.668;23.298;2022-11-04T05:36:24;94743.38;;;15.67;45.03
35676;BME280;21790;42.668;23.298;2022-11-04T05:38:53;94742.75;;;15.83;44.91
35676;BME280;21790;42.668;23.298;2022-11-04T05:41:20;94750.75;;;16.01;44.50
35676;BME280;21790;42.668;23.298;2022-11-04T05:43:59;94747.84;;;16.21;51.32
35676;BME280;21790;42.668;23.298;2022-11-04T05:46:26;94748.81;;;17.14;45.72
35676;BME280;21790;42.668;23.298;2022-11-04T05:48:51;94756.00;;;17.43;43.36
35676;BME280;21790;42.668;23.298;2022-11-04T05:51:20;94759.88;;;17.68;43.08
35676;BME280;21790;42.668;23.298;2022-11-04T05:53:46;94761.16;;;17.73;42.29
35676;BME280;21790;42.668;23.298;2022-11-04T05:56:11;94755.84;;;17.91;42.17
35676;BME280;21790;42.668;23.298;2022-11-04T05:58:37;94771.06;;;18.13;42.10
35676;BME280;21790;42.668;23.298;2022-11-04T06:01:29;94761.41;;;18.08;41.07
35676;BME280;21790;42.668;23.298;2022-11-04T06:03:57;94762.44;;;17.88;41.51
35676;BME280;21790;42.668;23.298;2022-11-04T06:06:26;94757.09;;;17.74;41.95
35676;BME280;21790;42.668;23.298;2022-11-04T06:08:55;94763.72;;;17.76;41.91
35676;BME280;21790;42.668;23.298;2022-11-04T06:11:22;94753.28;;;17.93;41.81
35676;BME280;21790;42.668;23.298;2022-11-04T06:13:48;94755.06;;;18.02;41.65
35676;BME280;21790;42.668;23.298;2022-11-04T06:16:13;94762.94;;;18.15;41.48
35676;BME280;21790;42.668;23.298;2022-11-04T06:18:39;94759.66;;;18.22;41.38
35676;BME280;21790;42.668;23.298;2022-11-04T06:21:08;94762.44;;;18.22;41.78
35676;BME280;21790;42.668;23.298;2022-11-04T06:23:34;94765.47;;;18.18;41.73
35676;BME280;21790;42.668;23.298;2022-11-04T06:26:00;94761.91;;;18.18;41.81
35676;BME280;21790;42.668;23.298;2022-11-04T06:28:25;94758.09;;;18.37;41.64
35676;BME280;21790;42.668;23.298;2022-11-04T06:30:51;94760.63;;;18.41;41.61
35676;BME280;21790;42.668;23.298;2022-11-04T06:33:16;94757.78;;;18.74;45.74
35676;BME280;21790;42.668;23.298;2022-11-04T06:35:42;94762.56;;;19.43;41.99
35676;BME280;21790;42.668;23.298;2022-11-04T06:38:07;94761.22;;;19.60;40.73
35676;BME280;21790;42.668;23.298;2022-11-04T06:40:37;94760.69;;;19.68;40.34
35676;BME280;21790;42.668;23.298;2022-11-04T06:43:03;94754.19;;;19.84;39.63
35676;BME280;21790;42.668;23.298;2022-11-04T06:45:28;94761.94;;;20.02;39.24
35676;BME280;21790;42.668;23.298;2022-11-04T06:47:54;94770.41;;;20.32;38.59
35676;BME280;21790;42.668;23.298;2022-11-04T06:50:19;94753.03;;;20.33;38.80
35676;BME280;21790;42.668;23.298;2022-11-04T06:52:44;94747.78;;;20.49;38.44
35676;BME280;21790;42.668;23.298;2022-11-04T06:55:10;94763.34;;;20.74;38.11
35676;BME280;21790;42.668;23.298;2022-11-04T06:57:35;94755.41;;;20.78;38.55
35676;BME280;21790;42.668;23.298;2022-11-04T07:00:01;94752.09;;;20.98;38.45
35676;BME280;21790;42.668;23.298;2022-11-04T07:02:27;94762.34;;;21.20;38.56
35676;BME280;21790;42.668;23.298;2022-11-04T07:04:52;94755.06;;;21.30;39.19
35676;BME280;21790;42.668;23.298;2022-11-04T07:07:18;94757.13;;;21.48;37.91
35676;BME280;21790;42.668;23.298;2022-11-04T07:09:43;94747.56;;;21.38;38.01
35676;BME280;21790;42.668;23.298;2022-11-04T07:12:09;94753.00;;;21.49;38.20
35676;BME280;21790;42.668;23.298;2022-11-04T07:14:34;94746.84;;;21.51;37.74
35676;BME280;21790;42.668;23.298;2022-11-04T07:16:59;94735.88;;;21.66;37.32
35676;BME280;21790;42.668;23.298;2022-11-04T07:19:26;94743.19;;;21.56;37.12
35676;BME280;21790;42.668;23.298;2022-11-04T07:21:51;94729.03;;;21.80;37.30
35676;BME280;21790;42.668;23.298;2022-11-04T07:24:16;94735.13;;;21.84;37.96
35676;BME280;21790;42.668;23.298;2022-11-04T07:26:42;94728.72;;;21.84;37.18
35676;BME280;21790;42.668;23.298;2022-11-04T07:29:08;94728.03;;;21.78;36.72
35676;BME280;21790;42.668;23.298;2022-11-04T07:31:36;94732.06;;;21.82;36.94
35676;BME280;21790;42.668;23.298;2022-11-04T07:34:01;94721.13;;;21.97;37.32
35676;BME280;21790;42.668;23.298;2022-11-04T07:36:27;94724.53;;;22.09;37.62
35676;BME280;21790;42.668;23.298;2022-11-04T07:38:53;94724.38;;;22.01;37.00
35676;BME280;21790;42.668;23.298;2022-11-04T07:41:18;94707.41;;;22.07;37.58
35676;BME280;21790;42.668;23.298;2022-11-04T07:43:51;94722.41;;;22.28;36.46
35676;BME280;21790;42.668;23.298;2022-11-04T07:46:17;94714.91;;;22.18;37.16
35676;BME280;21790;42.668;23.298;2022-11-04T07:48:43;94711.84;;;22.16;37.21
35676;BME280;21790;42.668;23.298;2022-11-04T07:51:11;94709.66;;;22.40;37.48
35676;BME280;21790;42.668;23.298;2022-11-04T07:53:37;94710.19;;;22.39;37.16
35676;BME280;21790;42.668;23.298;2022-11-04T07:56:04;94709.97;;;22.50;37.38
35676;BME280;21790;42.668;23.298;2022-11-04T07:58:31;94711.06;;;22.60;36.60
35676;BME280;21790;42.668;23.298;2022-11-04T08:01:01;94701.91;;;22.73;36.57
35676;BME280;21790;42.668;23.298;2022-11-04T08:03:27;94710.66;;;22.69;35.82
35676;BME280;21790;42.668;23.298;2022-11-04T08:05:57;94708.63;;;22.83;36.23
35676;BME280;21790;42.668;23.298;2022-11-04T08:08:23;94699.53;;;22.90;36.34
35676;BME280;21790;42.668;23.298;2022-11-04T08:10:53;94693.53;;;23.07;36.22
35676;BME280;21790;42.668;23.298;2022-11-04T08:13:19;94687.69;;;23.18;35.87
35676;BME280;21790;42.668;23.298;2022-11-04T08:15:44;94681.69;;;23.21;35.28
35676;BME280;21790;42.668;23.298;2022-11-04T08:18:09;94684.81;;;23.31;35.50
35676;BME280;21790;42.668;23.298;2022-11-04T08:20:35;94683.41;;;23.24;35.66
35676;BME280;21790;42.668;23.298;2022-11-04T08:23:00;94678.94;;;23.42;35.17
35676;BME280;21790;42.668;23.298;2022-11-04T08:25:25;94673.72;;;23.46;35.03
35676;BME280;21790;42.668;23.298;2022-11-04T08:27:51;94668.94;;;23.54;34.91
35676;BME280;21790;42.668;23.298;2022-11-04T08:30:16;94668.53;;;23.50;34.70
35676;BME280;21790;42.668;23.298;2022-11-04T08:32:42;94665.56;;;23.56;34.62
35676;BME280;21790;42.668;23.298;2022-11-04T08:35:09;94667.06;;;23.57;34.78
35676;BME280;21790;42.668;23.298;2022-11-04T08:37:34;94672.47;;;23.68;34.63
35676;BME280;21790;42.668;23.298;2022-11-04T08:40:00;94663.31;;;23.54;34.86
35676;BME280;21790;42.668;23.298;2022-11-04T08:42:26;94646.03;;;23.58;34.83
35676;BME280;21790;42.668;23.298;2022-11-04T08:44:51;94651.41;;;23.69;34.25
35676;BME280;21790;42.668;23.298;2022-11-04T08:47:17;94649.63;;;23.79;33.95
35676;BME280;21790;42.668;23.298;2022-11-04T08:49:43;94648.38;;;23.67;34.92
35676;BME280;21790;42.668;23.298;2022-11-04T08:52:08;94647.56;;;23.80;34.09
35676;BME280;21790;42.668;23.298;2022-11-04T08:54:34;94648.31;;;23.59;34.82
35676;BME280;21790;42.668;23.298;2022-11-04T08:57:00;94649.06;;;23.81;34.20
35676;BME280;21790;42.668;23.298;2022-11-04T08:59:26;94648.97;;;23.52;34.65
35676;BME280;21790;42.668;23.298;2022-11-04T09:01:51;94646.47;;;23.62;34.28
35676;BME280;21790;42.668;23.298;2022-11-04T09:04:17;94639.56;;;23.70;34.08
35676;BME280;21790;42.668;23.298;2022-11-04T09:06:44;94632.00;;;23.65;33.84
35676;BME280;21790;42.668;23.298;2022-11-04T09:09:15;94635.66;;;23.73;34.49
35676;BME280;21790;42.668;23.298;2022-11-04T09:11:43;94634.47;;;23.90;34.19
35676;BME280;21790;42.668;23.298;2022-11-04T09:14:09;94630.97;;;23.97;33.24
35676;BME280;21790;42.668;23.298;2022-11-04T09:16:36;94621.59;;;24.02;33.37
35676;BME280;21790;42.668;23.298;2022-11-04T09:19:03;94616.56;;;24.08;33.05
35676;BME280;21790;42.668;23.298;2022-11-04T09:21:28;94624.44;;;23.81;33.25
35676;BME280;21790;42.668;23.298;2022-11-04T09:23:55;94608.13;;;23.87;33.25
35676;BME280;21790;42.668;23.298;2022-11-04T09:26:22;94615.13;;;23.73;33.62
35676;BME280;21790;42.668;23.298;2022-11-04T09:28:53;94615.19;;;24.01;34.09
35676;BME280;21790;42.668;23.298;2022-11-04T09:31:19;94611.00;;;23.74;34.61
35676;BME280;21790;42.668;23.298;2022-11-04T09:33:45;94604.91;;;23.83;33.44
35676;BME280;21790;42.668;23.298;2022-11-04T09:36:10;94604.53;;;23.87;33.01
35676;BME280;21790;42.668;23.298;2022-11-04T09:38:39;94594.66;;;24.01;33.27
35676;BME280;21790;42.668;23.298;2022-11-04T09:44:12;94590.09;;;23.69;33.86
35676;BME280;21790;42.668;23.298;2022-11-04T09:46:39;94583.81;;;23.84;33.53
35676;BME280;21790;42.668;23.298;2022-11-04T09:49:09;94573.47;;;24.07;33.14
35676;BME280;21790;42.668;23.298;2022-11-04T09:51:37;94570.88;;;24.17;32.79
35676;BME280;21790;42.668;23.298;2022-11-04T09:54:19;94562.81;;;24.49;32.33
35676;BME280;21790;42.668;23.298;2022-11-04T09:56:46;94548.63;;;24.34;32.70
35676;BME280;21790;42.668;23.298;2022-11-04T09:59:14;94552.28;;;24.50;32.60
35676;BME280;21790;42.668;23.298;2022-11-04T10:01:56;94549.44;;;24.86;32.25
35676;BME280;21790;42.668;23.298;2022-11-04T10:04:35;94547.25;;;24.92;32.05
35676;BME280;21790;42.668;23.298;2022-11-04T10:09:53;94537.88;;;25.12;31.35
35676;BME280;21790;42.668;23.298;2022-11-04T10:15:23;94531.75;;;24.93;31.77
35676;BME280;21790;42.668;23.298;2022-11-04T10:23:01;94520.28;;;24.47;32.20
35676;BME280;21790;42.668;23.298;2022-11-04T10:27:58;94511.81;;;24.55;31.89
35676;BME280;21790;42.668;23.298;2022-11-04T10:30:24;94497.13;;;24.56;31.77
35676;BME280;21790;42.668;23.298;2022-11-04T10:35:21;94495.63;;;24.55;31.90
35676;BME280;21790;42.668;23.298;2022-11-04T10:37:50;94486.47;;;24.70;32.09
35676;BME280;21790;42.668;23.298;2022-11-04T10:40:20;94482.91;;;24.85;32.03
35676;BME280;21790;42.668;23.298;2022-11-04T10:42:48;94477.56;;;25.17;31.92
35676;BME280;21790;42.668;23.298;2022-11-04T10:45:13;94470.00;;;25.12;31.75
35676;BME280;21790;42.668;23.298;2022-11-04T10:52:36;94464.13;;;24.95;31.82
35676;BME280;21790;42.668;23.298;2022-11-04T10:55:03;94449.78;;;24.93;31.71
35676;BME280;21790;42.668;23.298;2022-11-04T10:57:28;94443.78;;;25.04;31.61
35676;BME280;21790;42.668;23.298;2022-11-04T11:07:42;94427.75;;;24.91;31.53
35676;BME280;21790;42.668;23.298;2022-11-04T11:10:19;94421.00;;;25.02;31.25
35676;BME280;21790;42.668;23.298;2022-11-04T11:12:49;94420.25;;;25.09;31.40
35676;BME280;21790;42.668;23.298;2022-11-04T11:17:46;94409.88;;;25.12;30.94
35676;BME280;21790;42.668;23.298;2022-11-04T11:20:19;94398.94;;;25.16;30.98
35676;BME280;21790;42.668;23.298;2022-11-04T11:22:45;94396.31;;;25.18;30.78
35676;BME280;21790;42.668;23.298;2022-11-04T11:27:36;94380.09;;;25.18;30.61
35676;BME280;21790;42.668;23.298;2022-11-04T11:30:02;94379.91;;;25.24;30.82
35676;BME280;21790;42.668;23.298;2022-11-04T11:32:31;94371.41;;;25.24;30.87
35676;BME280;21790;42.668;23.298;2022-11-04T11:34:59;94361.59;;;25.32;30.46
35676;BME280;21790;42.668;23.298;2022-11-04T11:37:26;94369.72;;;25.28;30.84
35676;BME280;21790;42.668;23.298;2022-11-04T11:39:55;94358.41;;;25.21;30.72
35676;BME280;21790;42.668;23.298;2022-11-04T11:42:20;94355.56;;;25.28;30.52
35676;BME280;21790;42.668;23.298;2022-11-04T11:44:52;94353.31;;;25.12;30.44
35676;BME280;21790;42.668;23.298;2022-11-04T11:47:19;94345.19;;;24.93;30.60
35676;BME280;21790;42.668;23.298;2022-11-04T11:49:46;94336.53;;;25.21;30.52
35676;BME280;21790;42.668;23.298;2022-11-04T11:52:34;94341.44;;;25.28;30.39
35676;BME280;21790;42.668;23.298;2022-11-04T11:57:32;94324.09;;;24.94;30.27
35676;BME280;21790;42.668;23.298;2022-11-04T12:00:00;94321.47;;;24.96;30.22
35676;BME280;21790;42.668;23.298;2022-11-04T12:02:41;94326.00;;;24.91;30.60
35676;BME280;21790;42.668;23.298;2022-11-04T12:05:10;94329.00;;;24.93;30.36
35676;BME280;21790;42.668;23.298;2022-11-04T12:07:42;94322.78;;;24.95;30.48
35676;BME280;21790;42.668;23.298;2022-11-04T12:20:38;94318.78;;;24.52;31.31
35676;BME280;21790;42.668;23.298;2022-11-04T12:23:17;94315.22;;;24.75;30.86
35676;BME280;21790;42.668;23.298;2022-11-04T12:33:59;94307.13;;;24.64;30.95
35676;BME280;21790;42.668;23.298;2022-11-04T12:44:17;94294.69;;;24.67;31.02
35676;BME280;21790;42.668;23.298;2022-11-04T12:46:51;94300.13;;;24.72;31.13
35676;BME280;21790;42.668;23.298;2022-11-04T12:54:28;94285.81;;;24.78;31.11
35676;BME280;21790;42.668;23.298;2022-11-04T12:59:50;94281.88;;;24.73;30.73
35676;BME280;21790;42.668;23.298;2022-11-04T13:07:38;94279.22;;;24.68;31.12
35676;BME280;21790;42.668;23.298;2022-11-04T13:10:05;94279.06;;;24.58;31.07
35676;BME280;21790;42.668;23.298;2022-11-04T13:12:38;94279.44;;;24.70;31.34
35676;BME280;21790;42.668;23.298;2022-11-04T13:15:19;94289.03;;;24.67;31.17
35676;BME280;21790;42.668;23.298;2022-11-04T13:17:47;94284.09;;;24.44;31.54
35676;BME280;21790;42.668;23.298;2022-11-04T13:20:16;94288.09;;;24.49;31.40
35676;BME280;21790;42.668;23.298;2022-11-04T13:22:46;94294.28;;;24.47;31.58
35676;BME280;21790;42.668;23.298;2022-11-04T13:27:45;94289.03;;;24.59;31.48
35676;BME280;21790;42.668;23.298;2022-11-04T13:35:23;94294.50;;;24.65;32.02
35676;BME280;21790;42.668;23.298;2022-11-04T13:40:28;94280.75;;;24.69;31.41
35676;BME280;21790;42.668;23.298;2022-11-04T13:45:45;94278.50;;;24.59;31.84
35676;BME280;21790;42.668;23.298;2022-11-04T13:48:11;94282.63;;;24.58;31.67
35676;BME280;21790;42.668;23.298;2022-11-04T13:50:37;94284.91;;;24.75;31.39
35676;BME280;21790;42.668;23.298;2022-11-04T13:53:04;94267.38;;;24.84;31.24
35676;BME280;21790;42.668;23.298;2022-11-04T13:55:30;94259.09;;;24.86;31.00
35676;BME280;21790;42.668;23.298;2022-11-04T13:57:58;94262.47;;;24.85;31.09
35676;BME280;21790;42.668;23.298;2022-11-04T14:00:28;94256.09;;;24.92;31.23
35676;BME280;21790;42.668;23.298;2022-11-04T14:02:55;94265.69;;;24.81;31.02
35676;BME280;21790;42.668;23.298;2022-11-04T14:10:37;94256.25;;;24.79;31.71
35676;BME280;21790;42.668;23.298;2022-11-04T14:18:35;94261.72;;;24.69;31.32
35676;BME280;21790;42.668;23.298;2022-11-04T14:23:32;94268.50;;;24.81;31.46
35676;BME280;21790;42.668;23.298;2022-11-04T14:25:58;94275.84;;;24.84;31.34
35676;BME280;21790;42.668;23.298;2022-11-04T14:28:26;94268.50;;;24.89;31.87
35676;BME280;21790;42.668;23.298;2022-11-04T14:31:05;94270.19;;;24.84;31.44
35676;BME280;21790;42.668;23.298;2022-11-04T14:33:37;94268.31;;;24.72;31.61
35676;BME280;21790;42.668;23.298;2022-11-04T14:38:38;94260.78;;;24.67;32.07
35676;BME280;21790;42.668;23.298;2022-11-04T14:41:11;94262.28;;;24.68;32.00
35676;BME280;21790;42.668;23.298;2022-11-04T14:43:38;94259.66;;;24.70;31.68
35676;BME280;21790;42.668;23.298;2022-11-04T14:46:04;94260.75;;;24.44;32.23
35676;BME280;21790;42.668;23.298;2022-11-04T14:48:30;94253.25;;;24.46;32.14
35676;BME280;21790;42.668;23.298;2022-11-04T14:50:55;94253.59;;;24.50;31.93
35676;BME280;21790;42.668;23.298;2022-11-04T14:53:27;94249.66;;;24.38;32.25
35676;BME280;21790;42.668;23.298;2022-11-04T14:56:16;94240.78;;;24.34;32.69
35676;BME280;21790;42.668;23.298;2022-11-04T14:58:50;94241.38;;;24.33;32.35
35676;BME280;21790;42.668;23.298;2022-11-04T15:01:16;94220.28;;;24.41;32.42
35676;BME280;21790;42.668;23.298;2022-11-04T15:03:42;94226.44;;;24.09;33.12
35676;BME280;21790;42.668;23.298;2022-11-04T15:06:10;94227.94;;;24.03;33.20
35676;BME280;21790;42.668;23.298;2022-11-04T15:08:37;94234.72;;;24.00;33.33
35676;BME280;21790;42.668;23.298;2022-11-04T15:13:35;94234.88;;;23.94;33.43
35676;BME280;21790;42.668;23.298;2022-11-04T15:16:03;94232.03;;;23.87;33.52
35676;BME280;21790;42.668;23.298;2022-11-04T15:18:31;94221.91;;;23.99;33.21
35676;BME280;21790;42.668;23.298;2022-11-04T15:20:58;94230.03;;;24.10;33.26
35676;BME280;21790;42.668;23.298;2022-11-04T15:23:28;94239.03;;;24.01;33.14